This is the latest recevied weather packets stored in our database for station/object HF3P-11. If no packets are shown the sender has not sent any weather packets the latest 1 day(s).
| Time | Temp. | Humidity | Pressure | Rain* | Wind** | Luminosity | Snow |
|---|---|---|---|---|---|---|---|
| 1836274676 | 15° C | 99% | 1015.8 hPa | 0 mm | 1.34 m/s, 174° | - | - |
| 1836274527 | 15° C | 99% | 1015.6 hPa | 0 mm | 1.34 m/s, 164° | - | - |
| 1836274369 | 15.56° C | 99% | 1015.7 hPa | 0 mm | 1.34 m/s, 172° | - | - |
| 1836274219 | 15° C | 99% | 1015.6 hPa | 0 mm | 1.34 m/s, 170° | - | - |
| 1836274076 | 15.56° C | 99% | 1015.8 hPa | 0 mm | 1.79 m/s, 173° | - | - |
| 1778035810 | 10° C | 97% | 998.2 hPa | 0 mm | 2.24 m/s, 49° | - | - |
| 1778035500 | 10° C | 100% | 998.4 hPa | 0 mm | 2.24 m/s, 46° | - | - |
| 1778035208 | 10° C | 97% | 998.5 hPa | 0 mm | 2.24 m/s, 43° | - | - |
| 1778034900 | 10.56° C | 100% | 998.1 hPa | 0 mm | 2.24 m/s, 43° | - | - |
| 1778034600 | 9.44° C | 100% | 998.1 hPa | 0 mm | 2.68 m/s, 41° | - | - |
| 1778034300 | 10° C | 100% | 998.3 hPa | 0 mm | 2.68 m/s, 37° | - | - |
| 1778034010 | 10° C | 100% | 998.3 hPa | 0 mm | 2.68 m/s, 33° | - | - |
| 1778033708 | 10.56° C | 100% | 998.2 hPa | 0 mm | 2.68 m/s, 46° | - | - |
| 1778033407 | 10° C | 100% | 998.4 hPa | 0 mm | 2.24 m/s, 74° | - | - |
| 1778033110 | 10° C | 100% | 998.3 hPa | 0 mm | 2.24 m/s, 62° | - | - |
| 1778032809 | 10° C | 100% | 998.6 hPa | 0 mm | 2.68 m/s, 39° | - | - |
| 1778032511 | 10° C | 97% | 998.5 hPa | 0 mm | 2.68 m/s, 42° | - | - |
| 1778032200 | 10° C | 97% | 998.6 hPa | 0 mm | 3.13 m/s, 40° | - | - |
| 1778031909 | 10.56° C | 97% | 998.5 hPa | 0 mm | 3.13 m/s, 33° | - | - |
| 1778031609 | 10.56° C | 97% | 998.6 hPa | 0 mm | 2.68 m/s, 36° | - | - |
| 1778031300 | 10.56° C | 97% | 998.7 hPa | 0 mm | 2.68 m/s, 37° | - | - |
| 1778031008 | 10.56° C | 97% | 998.8 hPa | 0 mm | 3.13 m/s, 35° | - | - |
| 1778030700 | 10.56° C | 97% | 998.6 hPa | 0 mm | 2.68 m/s, 39° | - | - |
| 1778030408 | 10.56° C | 97% | 998.6 hPa | 0 mm | 2.68 m/s, 41° | - | - |
| 1778030100 | 10.56° C | 97% | 998.7 hPa | 0 mm | 3.13 m/s, 43° | - | - |
* Rain latest hour (hover to see other rain measurements)
** Current wind speed in m/s (hover to see current wind gust speed)